Time;durP1;ratioP1;P1;durP2;ratioP2;P2;SDS_P1;SDS_P2;PMS_P1;PMS_P2;Temp;Humidity;BMP_temperature;BMP_pressure;BME280_temperature;BME280_humidity;BME280_pressure;Samples;Min_cycle;Max_cycle;Signal;HPM_P1;HPM_P2
2021/08/21 00:01:46;;;;;;;5.47;2.83;;;14.20;88.60;;;;;;6279141;22;20027;-75
2021/08/21 00:04:20;;;;;;;6.53;2.60;;;14.20;88.60;;;;;;6313209;22;20034;-75
2021/08/21 00:06:54;;;;;;;4.97;2.30;;;14.20;88.60;;;;;;6313361;22;20088;-75
2021/08/21 00:09:36;;;;;;;8.15;2.65;;;14.10;88.50;;;;;;6311796;22;20019;-75
2021/08/21 00:12:10;;;;;;;5.78;2.47;;;14.10;88.40;;;;;;6310849;22;20155;-76
2021/08/21 00:14:45;;;;;;;6.20;2.67;;;14.10;88.40;;;;;;6286175;22;20271;-76
2021/08/21 00:17:12;;;;;;;5.40;2.55;;;14.10;88.60;;;;;;6313456;22;20265;-75
2021/08/21 00:19:46;;;;;;;6.50;2.78;;;14.10;88.50;;;;;;6287766;22;20027;-75
2021/08/21 00:22:20;;;;;;;5.15;2.92;;;14.00;88.60;;;;;;6285496;22;20019;-76
2021/08/21 00:24:54;;;;;;;5.00;2.50;;;14.00;88.80;;;;;;6286222;22;20245;-76
2021/08/21 00:27:28;;;;;;;7.25;2.65;;;14.00;89.00;;;;;;6313211;22;20057;-76
2021/08/21 00:29:57;;;;;;;5.18;2.58;;;13.90;89.00;;;;;;6314821;22;20355;-76
2021/08/21 00:32:31;;;;;;;7.10;2.35;;;13.90;89.00;;;;;;6316326;22;20066;-76
2021/08/21 00:34:58;;;;;;;5.80;2.67;;;13.90;88.90;;;;;;6316446;22;20019;-76
2021/08/21 00:37:26;;;;;;;4.68;2.42;;;13.90;88.90;;;;;;6316016;22;20141;-76
2021/08/21 00:39:53;;;;;;;10.25;2.50;;;13.80;88.90;;;;;;6289254;22;20030;-74
2021/08/21 00:42:20;;;;;;;6.63;2.60;;;13.80;88.80;;;;;;6288127;22;20357;-76
2021/08/21 00:44:48;;;;;;;5.30;2.58;;;13.80;88.60;;;;;;6313578;22;20095;-75
2021/08/21 00:47:18;;;;;;;5.80;2.58;;;13.70;88.80;;;;;;6288467;22;20034;-75
2021/08/21 00:49:47;;;;;;;6.78;3.33;;;13.70;89.10;;;;;;6315656;22;20034;-76
2021/08/21 00:52:17;;;;;;;6.30;2.67;;;13.70;89.00;;;;;;6314085;22;20026;-76
2021/08/21 00:54:44;;;;;;;4.82;2.53;;;13.60;89.20;;;;;;6287902;22;20027;-77
2021/08/21 00:57:13;;;;;;;5.47;2.92;;;13.60;89.30;;;;;;6315955;22;20019;-76
2021/08/21 00:59:42;;;;;;;7.25;3.33;;;13.70;89.20;;;;;;6309941;22;20256;-76
2021/08/21 01:02:10;;;;;;;7.45;2.65;;;13.70;89.30;;;;;;6280858;22;20027;-76
2021/08/21 01:04:40;;;;;;;12.82;3.08;;;13.60;89.40;;;;;;6313504;22;20114;-75
2021/08/21 01:07:08;;;;;;;5.72;2.38;;;13.60;89.50;;;;;;6287657;22;20035;-75
2021/08/21 01:09:37;;;;;;;4.70;2.60;;;13.50;89.50;;;;;;6287059;22;20046;-75
2021/08/21 01:12:06;;;;;;;5.30;2.30;;;13.50;89.20;;;;;;6286226;22;20235;-75
2021/08/21 01:14:36;;;;;;;5.60;2.63;;;13.50;89.20;;;;;;6286873;22;20034;-77
2021/08/21 01:17:20;;;;;;;3.51;1.91;;;13.50;89.10;;;;;;2258551;22;10149988;-76
2021/08/21 01:19:52;;;;;;;4.95;2.53;;;13.50;89.00;;;;;;5002717;22;10001161;-76
2021/08/21 01:22:22;;;;;;;5.40;2.00;;;13.60;89.00;;;;;;6310622;22;20045;-74
2021/08/21 01:24:51;;;;;;;5.60;2.30;;;13.50;89.00;;;;;;6284622;22;20079;-74
2021/08/21 01:27:23;;;;;;;4.72;2.30;;;13.50;89.00;;;;;;6283721;22;20379;-75
2021/08/21 01:30:10;;;;;;;7.20;3.25;;;13.50;89.00;;;;;;6286828;22;20026;-74
2021/08/21 01:32:47;;;;;;;5.22;2.35;;;13.50;88.80;;;;;;6296502;22;20038;-75
2021/08/21 01:35:17;;;;;;;8.30;2.33;;;13.50;89.00;;;;;;6287833;22;20023;-75
2021/08/21 01:37:46;;;;;;;5.28;2.70;;;13.50;88.90;;;;;;6284173;22;20306;-76
2021/08/21 01:40:32;;;;;;;6.43;2.70;;;13.50;89.00;;;;;;6308992;22;20033;-75
2021/08/21 01:43:04;;;;;;;5.80;2.60;;;13.60;88.90;;;;;;6282596;22;20041;-75
2021/08/21 01:45:41;;;;;;;4.20;2.15;;;13.60;88.90;;;;;;6283785;22;20031;-75
2021/08/21 01:48:08;;;;;;;9.85;3.63;;;13.70;88.80;;;;;;6285413;22;20226;-76
2021/08/21 01:50:37;;;;;;;5.85;2.83;;;13.70;88.80;;;;;;6284255;22;20245;-76
2021/08/21 01:53:11;;;;;;;7.05;3.45;;;13.80;88.60;;;;;;6284015;22;20019;-76
2021/08/21 01:55:38;;;;;;;4.30;2.17;;;13.90;88.50;;;;;;6284813;22;20026;-75
2021/08/21 01:58:21;;;;;;;6.07;2.75;;;14.10;88.20;;;;;;6285124;22;20046;-76
2021/08/21 02:00:53;;;;;;;7.15;2.65;;;14.20;87.80;;;;;;6279899;22;20038;-75
2021/08/21 02:03:25;;;;;;;5.53;2.90;;;14.20;87.90;;;;;;6287677;22;20064;-76
2021/08/21 02:05:52;;;;;;;8.98;2.72;;;14.30;87.50;;;;;;6287314;22;20068;-74
2021/08/21 02:08:21;;;;;;;5.05;2.83;;;14.30;87.50;;;;;;6281705;22;20552;-76
2021/08/21 02:10:50;;;;;;;5.13;2.57;;;14.30;87.80;;;;;;6284440;22;20275;-75
2021/08/21 02:13:18;;;;;;;5.30;3.03;;;14.30;87.80;;;;;;6281363;22;20172;-76
2021/08/21 02:15:46;;;;;;;5.30;2.78;;;14.20;87.90;;;;;;6284024;22;20030;-74
2021/08/21 02:18:13;;;;;;;8.15;3.55;;;14.30;87.90;;;;;;6285480;22;20019;-74
2021/08/21 02:20:51;;;;;;;5.05;2.58;;;14.20;87.80;;;;;;6287020;22;20030;-75
2021/08/21 02:23:22;;;;;;;6.47;3.00;;;14.20;87.90;;;;;;6286048;22;20221;-76
2021/08/21 02:25:56;;;;;;;6.03;2.72;;;14.20;87.80;;;;;;6284957;22;20023;-75
2021/08/21 02:28:27;;;;;;;6.60;2.72;;;14.20;88.00;;;;;;6311893;22;20034;-76
2021/08/21 02:30:54;;;;;;;7.25;2.55;;;14.20;88.00;;;;;;6285882;22;20074;-76
2021/08/21 02:33:21;;;;;;;6.20;2.88;;;14.10;88.10;;;;;;6313898;22;20027;-76
2021/08/21 02:35:50;;;;;;;6.80;3.20;;;14.10;88.00;;;;;;6285638;22;20025;-74
2021/08/21 02:38:18;;;;;;;6.13;3.10;;;14.10;88.10;;;;;;6284938;22;20043;-76
2021/08/21 02:40:45;;;;;;;5.28;2.72;;;14.10;88.10;;;;;;6313104;22;20027;-76
2021/08/21 02:43:13;;;;;;;5.75;2.78;;;14.10;88.30;;;;;;6285558;22;20030;-75
2021/08/21 02:45:42;;;;;;;7.68;3.35;;;14.10;88.40;;;;;;6312830;22;20019;-75
2021/08/21 02:48:09;;;;;;;7.25;3.42;;;14.10;88.20;;;;;;6285921;22;20038;-76
2021/08/21 02:50:36;;;;;;;5.57;2.50;;;14.10;88.10;;;;;;6283368;22;20023;-74
2021/08/21 02:53:05;;;;;;;7.70;2.88;;;14.10;88.10;;;;;;6284657;22;20336;-76
2021/08/21 02:55:33;;;;;;;6.95;2.55;;;14.20;88.00;;;;;;6283395;22;20027;-75
2021/08/21 02:58:01;;;;;;;7.05;3.08;;;14.10;87.90;;;;;;6285594;22;20039;-76
2021/08/21 03:00:39;;;;;;;5.82;2.75;;;14.10;87.90;;;;;;6274937;22;20384;-77
2021/08/21 03:03:11;;;;;;;5.40;2.63;;;14.00;88.10;;;;;;6280726;22;20027;-76
2021/08/21 03:05:41;;;;;;;5.97;2.90;;;14.00;88.30;;;;;;6280781;22;20072;-76
2021/08/21 03:08:08;;;;;;;6.57;2.55;;;13.90;88.20;;;;;;6280671;22;20019;-76
2021/08/21 03:10:44;;;;;;;5.18;2.40;;;13.90;88.20;;;;;;6280926;22;20027;-75
2021/08/21 03:13:11;;;;;;;7.00;2.97;;;13.90;88.20;;;;;;6280640;22;20443;-76
2021/08/21 03:15:39;;;;;;;6.85;3.60;;;13.80;88.30;;;;;;6306089;22;20023;-75
2021/08/21 03:18:06;;;;;;;6.07;2.65;;;13.80;88.40;;;;;;6277754;22;20110;-76
2021/08/21 03:20:35;;;;;;;5.88;2.70;;;13.70;88.60;;;;;;6279554;22;20202;-75
2021/08/21 03:23:03;;;;;;;6.43;2.83;;;13.70;88.60;;;;;;6280616;22;20023;-75
2021/08/21 03:25:33;;;;;;;6.72;2.63;;;13.70;88.70;;;;;;6277728;22;20052;-76
2021/08/21 03:28:01;;;;;;;4.95;2.60;;;13.60;89.00;;;;;;6280180;22;20023;-74
2021/08/21 03:30:32;;;;;;;5.07;2.70;;;13.50;89.30;;;;;;6281524;22;20042;-75
2021/08/21 03:33:13;;;;;;;4.72;2.08;;;13.40;89.50;;;;;;6281875;22;20027;-76
2021/08/21 03:35:42;;;;;;;5.63;2.97;;;13.50;89.50;;;;;;6280605;22;20094;-74
2021/08/21 03:38:11;;;;;;;5.20;2.65;;;13.50;89.60;;;;;;6280160;22;20054;-77
2021/08/21 03:40:52;;;;;;;6.97;3.17;;;13.50;89.60;;;;;;6283559;22;20035;-74
2021/08/21 03:43:20;;;;;;;7.10;2.65;;;13.40;89.60;;;;;;6310420;22;20311;-75
2021/08/21 03:45:52;;;;;;;4.82;2.40;;;13.50;89.60;;;;;;6306764;22;20243;-75
2021/08/21 03:48:20;;;;;;;5.88;2.78;;;13.60;89.50;;;;;;6281803;22;20380;-73
2021/08/21 03:50:49;;;;;;;5.50;2.67;;;13.60;89.20;;;;;;6282883;22;20023;-76
2021/08/21 03:53:16;;;;;;;8.05;3.10;;;13.50;89.30;;;;;;6282700;22;20027;-75
2021/08/21 03:55:59;;;;;;;7.68;3.17;;;13.50;89.20;;;;;;6286581;22;20068;-76
2021/08/21 03:58:28;;;;;;;7.10;3.33;;;13.50;89.10;;;;;;6283840;22;20102;-76
2021/08/21 04:00:55;;;;;;;5.82;2.80;;;13.50;89.00;;;;;;6279901;22;20023;-75
2021/08/21 04:03:23;;;;;;;5.70;2.90;;;13.40;89.30;;;;;;6283856;22;20078;-74
2021/08/21 04:05:51;;;;;;;6.40;2.70;;;13.30;89.40;;;;;;6282844;22;20607;-75
2021/08/21 04:08:19;;;;;;;8.15;3.17;;;13.40;89.50;;;;;;6282384;22;20034;-75
2021/08/21 04:10:47;;;;;;;6.70;2.70;;;13.30;89.50;;;;;;6282349;22;20030;-75
2021/08/21 04:13:14;;;;;;;5.03;2.33;;;13.30;89.50;;;;;;6282552;22;20058;-76
2021/08/21 04:15:42;;;;;;;6.60;2.75;;;13.30;89.60;;;;;;6281120;22;20079;-76
2021/08/21 04:18:09;;;;;;;6.40;2.90;;;13.20;89.60;;;;;;6282772;22;20027;-76
2021/08/21 04:20:37;;;;;;;5.45;2.58;;;13.20;89.60;;;;;;6282178;22;20313;-76
2021/08/21 04:23:06;;;;;;;6.60;2.90;;;13.30;89.60;;;;;;6284284;22;20023;-75
2021/08/21 04:25:36;;;;;;;5.53;2.75;;;13.20;89.90;;;;;;6281588;22;20337;-75
2021/08/21 04:28:06;;;;;;;6.75;2.40;;;13.10;90.20;;;;;;6280850;22;20031;-75
2021/08/21 04:30:34;;;;;;;5.75;2.65;;;13.20;90.20;;;;;;6281119;22;20050;-75
2021/08/21 04:33:01;;;;;;;5.57;3.03;;;13.10;90.10;;;;;;6281357;22;20041;-74
2021/08/21 04:35:34;;;;;;;5.05;2.53;;;13.20;90.00;;;;;;6280839;22;20031;-75
2021/08/21 04:38:07;;;;;;;6.63;2.35;;;13.20;89.90;;;;;;6281033;22;20023;-75
2021/08/21 04:40:41;;;;;;;8.75;2.85;;;13.20;89.60;;;;;;6275607;22;20050;-75
2021/08/21 04:43:10;;;;;;;4.72;2.47;;;13.10;89.90;;;;;;6277581;22;20039;-73
2021/08/21 04:45:38;;;;;;;5.77;2.87;;;13.10;90.10;;;;;;6276384;22;20082;-76
2021/08/21 04:48:06;;;;;;;8.52;2.90;;;13.10;90.10;;;;;;6275854;22;20042;-75
2021/08/21 04:50:35;;;;;;;6.50;3.00;;;13.20;90.00;;;;;;6276301;22;20081;-75
2021/08/21 04:53:03;;;;;;;4.75;2.60;;;13.20;89.90;;;;;;6275546;22;20031;-74
2021/08/21 04:55:32;;;;;;;5.22;2.70;;;13.30;89.80;;;;;;6276712;22;20027;-75
2021/08/21 04:58:01;;;;;;;8.45;2.95;;;13.30;89.80;;;;;;6276204;22;20028;-74
2021/08/21 05:00:29;;;;;;;14.13;3.00;;;13.30;89.90;;;;;;6270585;22;20027;-74
2021/08/21 05:03:04;;;;;;;9.63;3.00;;;13.30;89.90;;;;;;6276659;22;20330;-76
2021/08/21 05:05:32;;;;;;;6.43;2.38;;;13.40;89.90;;;;;;6274519;22;20028;-75
2021/08/21 05:08:01;;;;;;;5.57;2.35;;;13.40;89.80;;;;;;6276569;22;20028;-75
2021/08/21 05:10:29;;;;;;;5.45;2.80;;;13.40;89.80;;;;;;6277413;22;20027;-75
2021/08/21 05:12:58;;;;;;;8.18;2.60;;;13.50;89.60;;;;;;6277102;22;20237;-75
2021/08/21 05:15:26;;;;;;;8.05;2.55;;;13.50;89.50;;;;;;6276721;22;20058;-77
2021/08/21 05:18:25;;;;;;;5.25;2.53;;;13.60;89.40;;;;;;6241466;22;20042;-75
2021/08/21 05:21:05;;;;;;;6.28;2.47;;;13.60;89.40;;;;;;6277093;22;20031;-76
2021/08/21 05:23:32;;;;;;;5.90;2.60;;;13.70;89.40;;;;;;6276316;22;20069;-74
2021/08/21 05:25:59;;;;;;;6.35;2.92;;;13.90;89.10;;;;;;6277153;22;20081;-76
2021/08/21 05:28:28;;;;;;;5.00;2.35;;;13.90;88.70;;;;;;6276473;22;20059;-74
2021/08/21 05:30:56;;;;;;;5.80;2.92;;;14.00;88.50;;;;;;6277255;22;20330;-74
2021/08/21 05:33:23;;;;;;;5.85;2.35;;;14.20;88.40;;;;;;6276660;22;20047;-73
2021/08/21 05:35:51;;;;;;;5.85;2.88;;;14.20;88.00;;;;;;6281772;22;20039;-74
2021/08/21 05:38:18;;;;;;;7.05;3.17;;;14.20;87.90;;;;;;6278192;22;20019;-76
2021/08/21 05:40:46;;;;;;;5.63;2.97;;;14.40;87.60;;;;;;6283820;22;20018;-76
2021/08/21 05:43:13;;;;;;;6.55;3.25;;;14.40;87.70;;;;;;6281975;22;20249;-75
2021/08/21 05:45:42;;;;;;;7.97;3.20;;;14.40;87.60;;;;;;6309302;22;20364;-75
2021/08/21 05:48:10;;;;;;;7.75;2.47;;;14.50;87.50;;;;;;6310498;22;20158;-75
2021/08/21 05:50:37;;;;;;;10.02;3.25;;;14.60;87.50;;;;;;6281673;22;20558;-75
2021/08/21 05:53:05;;;;;;;7.30;2.90;;;14.70;87.00;;;;;;6310258;22;20402;-75
2021/08/21 05:55:33;;;;;;;5.85;2.55;;;14.80;86.90;;;;;;6283390;22;20300;-76
2021/08/21 05:58:05;;;;;;;6.40;2.97;;;14.90;86.70;;;;;;6283334;22;20038;-76
2021/08/21 06:00:32;;;;;;;6.75;2.40;;;15.00;86.20;;;;;;6277458;22;20075;-75
2021/08/21 06:03:01;;;;;;;4.78;2.70;;;15.10;85.80;;;;;;6284612;22;20260;-76
2021/08/21 06:05:29;;;;;;;7.88;2.60;;;15.20;85.30;;;;;;6311853;22;20092;-76
2021/08/21 06:08:02;;;;;;;5.30;2.67;;;15.20;85.20;;;;;;6282237;22;20023;-75
2021/08/21 06:10:33;;;;;;;6.50;2.70;;;15.40;85.20;;;;;;6280056;22;20116;-75
2021/08/21 06:13:01;;;;;;;6.57;2.83;;;15.40;85.10;;;;;;6279427;22;20049;-76
2021/08/21 06:15:28;;;;;;;6.03;2.90;;;15.50;84.80;;;;;;6280698;22;20097;-75
2021/08/21 06:17:55;;;;;;;7.03;3.28;;;15.60;84.90;;;;;;6308538;22;20245;-76
2021/08/21 06:20:24;;;;;;;6.05;3.40;;;15.70;84.30;;;;;;6308315;22;20051;-75
2021/08/21 06:22:52;;;;;;;7.38;2.95;;;15.80;84.10;;;;;;6280912;22;20023;-76
2021/08/21 06:25:19;;;;;;;6.38;2.83;;;15.90;83.90;;;;;;6306500;22;20338;-75
2021/08/21 06:27:46;;;;;;;5.95;3.13;;;16.00;83.60;;;;;;6279559;22;20027;-77
2021/08/21 06:30:14;;;;;;;6.38;2.63;;;16.00;83.60;;;;;;6307623;22;20019;-74
2021/08/21 06:32:41;;;;;;;5.20;2.53;;;16.10;83.50;;;;;;6281076;22;20335;-75
2021/08/21 06:35:11;;;;;;;6.25;2.35;;;16.10;83.40;;;;;;6309181;22;20332;-75
2021/08/21 06:37:39;;;;;;;5.43;2.87;;;16.10;83.40;;;;;;6307282;22;20026;-77
2021/08/21 06:40:08;;;;;;;6.03;2.80;;;16.20;83.50;;;;;;6280400;22;20039;-76
2021/08/21 06:42:35;;;;;;;6.82;2.45;;;16.30;83.30;;;;;;6279687;22;20060;-77
2021/08/21 06:45:17;;;;;;;5.93;2.88;;;16.40;83.10;;;;;;6282842;22;20046;-75
2021/08/21 06:47:44;;;;;;;7.80;3.33;;;16.60;83.00;;;;;;6310316;22;20370;-74
2021/08/21 06:50:12;;;;;;;6.85;2.67;;;16.70;82.50;;;;;;6310242;22;20249;-73
2021/08/21 06:52:40;;;;;;;8.80;3.03;;;17.00;82.20;;;;;;6309199;22;20033;-76
2021/08/21 06:55:08;;;;;;;5.53;2.63;;;17.10;81.80;;;;;;6309830;22;20042;-77
2021/08/21 06:57:36;;;;;;;5.68;2.60;;;17.20;81.20;;;;;;6309344;22;20043;-73
2021/08/21 07:00:04;;;;;;;9.35;3.05;;;17.40;81.20;;;;;;6308614;22;20034;-75
2021/08/21 07:02:34;;;;;;;5.43;2.70;;;17.50;80.70;;;;;;6309842;22;20463;-75
2021/08/21 07:05:02;;;;;;;8.43;2.55;;;17.50;80.50;;;;;;6309416;22;20349;-75
2021/08/21 07:07:30;;;;;;;4.97;2.10;;;17.60;80.30;;;;;;6308204;22;20194;-75
2021/08/21 07:09:58;;;;;;;4.55;2.33;;;17.60;80.30;;;;;;6310729;22;20030;-76
2021/08/21 07:12:26;;;;;;;9.88;4.47;;;17.80;79.70;;;;;;6307956;22;20034;-75
2021/08/21 07:14:53;;;;;;;5.70;2.33;;;17.90;79.50;;;;;;6285444;22;20034;-76
2021/08/21 07:17:20;;;;;;;6.30;2.40;;;17.90;79.60;;;;;;6279976;22;20046;-75
2021/08/21 07:19:47;;;;;;;4.30;2.22;;;18.00;79.20;;;;;;6307179;22;20070;-73
2021/08/21 07:22:15;;;;;;;6.20;2.90;;;18.10;78.60;;;;;;6309080;22;20081;-75
2021/08/21 07:24:42;;;;;;;7.72;2.83;;;18.30;78.30;;;;;;6310769;22;20338;-74
2021/08/21 07:27:11;;;;;;;7.75;2.17;;;18.30;78.40;;;;;;6312048;22;20301;-74
2021/08/21 07:29:38;;;;;;;5.43;2.13;;;18.50;77.70;;;;;;6285033;22;20306;-75
2021/08/21 07:32:06;;;;;;;4.93;2.15;;;18.60;77.20;;;;;;6313726;22;20027;-75
2021/08/21 07:34:33;;;;;;;4.22;2.28;;;18.70;77.10;;;;;;6312272;22;20043;-76
2021/08/21 07:37:00;;;;;;;6.40;2.08;;;18.80;76.90;;;;;;6311706;22;20031;-76
2021/08/21 07:39:30;;;;;;;6.53;3.08;;;18.90;77.00;;;;;;6283784;22;20332;-75
2021/08/21 07:41:57;;;;;;;4.90;2.42;;;19.10;76.90;;;;;;6306585;22;20405;-74
2021/08/21 07:44:25;;;;;;;3.92;1.98;;;19.20;76.50;;;;;;6281087;22;20023;-74
2021/08/21 07:46:53;;;;;;;4.22;2.20;;;19.30;75.90;;;;;;6280431;22;20042;-75
2021/08/21 07:49:20;;;;;;;4.93;2.30;;;19.50;74.90;;;;;;6278490;22;20402;-75
2021/08/21 07:51:47;;;;;;;4.60;2.33;;;19.70;74.10;;;;;;6280641;22;20323;-75
2021/08/21 07:54:14;;;;;;;3.88;2.30;;;19.80;74.20;;;;;;6278426;22;20040;-75
2021/08/21 07:56:41;;;;;;;3.90;2.25;;;19.90;73.80;;;;;;6276707;22;20083;-75
2021/08/21 07:59:09;;;;;;;6.78;2.22;;;20.10;73.40;;;;;;6279998;22;20035;-75
2021/08/21 08:01:37;;;;;;;6.18;2.08;;;20.20;72.70;;;;;;6273815;22;20040;-74
2021/08/21 08:04:05;;;;;;;4.47;2.13;;;20.40;73.00;;;;;;6277065;22;20054;-75
2021/08/21 08:06:32;;;;;;;10.07;2.30;;;20.50;72.30;;;;;;6279609;22;20058;-74
2021/08/21 08:08:59;;;;;;;5.00;2.10;;;20.70;71.30;;;;;;6275948;22;20031;-74
2021/08/21 08:11:26;;;;;;;4.38;2.25;;;20.90;71.30;;;;;;6278418;22;20081;-75
2021/08/21 08:13:53;;;;;;;5.35;1.83;;;21.00;70.80;;;;;;6276477;22;20043;-73
2021/08/21 08:16:21;;;;;;;3.85;1.92;;;21.10;70.30;;;;;;6277568;22;20061;-75
2021/08/21 08:18:49;;;;;;;4.63;2.08;;;21.20;69.90;;;;;;6279270;22;20016;-75
2021/08/21 08:21:18;;;;;;;3.67;1.67;;;21.50;69.40;;;;;;6278338;22;20019;-75
2021/08/21 08:23:45;;;;;;;5.07;1.90;;;21.60;68.70;;;;;;6279435;22;20039;-74
2021/08/21 08:26:13;;;;;;;3.67;1.88;;;21.90;68.50;;;;;;6279553;22;20046;-75
2021/08/21 08:28:40;;;;;;;4.78;2.10;;;22.20;68.00;;;;;;6281076;22;20023;-75
2021/08/21 08:31:07;;;;;;;6.00;2.70;;;22.40;67.00;;;;;;6280243;22;20027;-75
2021/08/21 08:33:35;;;;;;;4.15;2.08;;;22.70;67.00;;;;;;6278790;22;20023;-75
2021/08/21 08:36:03;;;;;;;3.35;1.73;;;22.90;65.30;;;;;;6278836;22;20023;-74
2021/08/21 08:38:31;;;;;;;7.13;2.28;;;23.10;65.20;;;;;;6281677;22;20047;-74
2021/08/21 08:40:59;;;;;;;5.88;2.35;;;23.30;64.80;;;;;;6294973;22;20027;-75
2021/08/21 08:43:28;;;;;;;3.75;2.13;;;23.60;64.10;;;;;;6283987;22;20031;-75
2021/08/21 08:45:56;;;;;;;6.35;2.10;;;23.70;63.20;;;;;;6310467;22;20070;-74
2021/08/21 08:48:23;;;;;;;5.43;2.53;;;23.70;62.80;;;;;;6309318;22;20065;-75
2021/08/21 08:50:50;;;;;;;4.40;2.05;;;24.00;62.90;;;;;;6313128;22;20049;-74
2021/08/21 08:53:19;;;;;;;4.38;2.40;;;23.90;62.00;;;;;;6311804;22;20069;-76
2021/08/21 08:55:46;;;;;;;5.32;2.15;;;24.10;60.90;;;;;;6284920;22;20027;-74
2021/08/21 08:58:14;;;;;;;5.68;2.60;;;24.10;58.60;;;;;;6311479;22;20345;-75
2021/08/21 09:00:41;;;;;;;4.70;2.45;;;24.00;57.40;;;;;;6306253;22;20239;-75
2021/08/21 09:03:19;;;;;;;3.42;1.80;;;24.40;59.20;;;;;;6282604;22;20361;-74
2021/08/21 09:05:46;;;;;;;3.70;2.03;;;24.40;56.30;;;;;;6281478;22;20035;-75
2021/08/21 09:08:23;;;;;;;3.60;1.73;;;24.40;56.30;;;;;;6309692;22;20253;-74
2021/08/21 09:10:51;;;;;;;4.07;2.03;;;24.40;56.20;;;;;;6280721;22;20095;-75
2021/08/21 09:13:19;;;;;;;4.47;2.28;;;24.90;56.50;;;;;;6309547;22;20027;-74
2021/08/21 09:15:48;;;;;;;3.85;2.35;;;25.20;55.30;;;;;;6309354;22;20076;-74
2021/08/21 09:18:16;;;;;;;4.55;2.22;;;25.30;53.10;;;;;;6312217;22;20034;-75
2021/08/21 09:20:56;;;;;;;3.85;2.13;;;25.00;54.60;;;;;;6312409;22;20210;-75
2021/08/21 09:23:27;;;;;;;4.53;2.90;;;24.60;54.80;;;;;;6309912;22;20035;-74
2021/08/21 09:25:57;;;;;;;4.63;2.13;;;24.50;55.10;;;;;;6309996;22;20046;-75
2021/08/21 09:28:26;;;;;;;4.00;2.05;;;24.30;56.00;;;;;;6309702;22;20078;-75
2021/08/21 09:31:03;;;;;;;4.10;2.00;;;24.30;56.40;;;;;;6309805;22;20199;-77
2021/08/21 09:33:31;;;;;;;3.10;1.67;;;24.20;56.70;;;;;;6306965;22;20329;-73
2021/08/21 09:35:58;;;;;;;3.45;1.90;;;24.40;56.90;;;;;;6311205;22;20079;-73
2021/08/21 09:39:12;;;;;;;3.83;1.55;;;24.30;55.90;;;;;;6282518;22;20035;-74
2021/08/21 09:41:53;;;;;;;4.60;2.15;;;24.50;56.20;;;;;;6279541;22;20046;-75
2021/08/21 09:44:26;;;;;;;3.80;2.03;;;24.60;55.20;;;;;;6308141;22;20019;-74
2021/08/21 09:47:09;;;;;;;4.50;1.75;;;24.70;54.70;;;;;;6281629;22;20030;-75
2021/08/21 09:49:36;;;;;;;2.83;1.35;;;24.90;55.10;;;;;;6281105;22;20027;-74
2021/08/21 09:52:07;;;;;;;3.67;1.95;;;24.70;52.60;;;;;;6310497;22;20015;-75
2021/08/21 09:54:39;;;;;;;5.75;2.03;;;24.50;53.50;;;;;;6307388;22;20023;-75
2021/08/21 09:57:07;;;;;;;4.80;1.83;;;24.60;52.60;;;;;;6281883;22;20031;-75
2021/08/21 09:59:36;;;;;;;3.22;1.50;;;24.90;52.90;;;;;;6307718;22;20015;-75
2021/08/21 10:02:06;;;;;;;3.17;1.67;;;25.30;52.40;;;;;;6308224;22;20068;-75
2021/08/21 10:04:40;;;;;;;2.83;1.67;;;25.50;51.80;;;;;;6284390;22;20031;-75
2021/08/21 10:07:10;;;;;;;8.85;1.80;;;25.70;50.90;;;;;;6309419;22;20039;-75
2021/08/21 10:09:40;;;;;;;4.55;1.92;;;25.80;48.90;;;;;;6310408;22;20062;-74
2021/08/21 10:12:10;;;;;;;3.35;1.65;;;26.10;50.40;;;;;;6309905;22;20031;-74
2021/08/21 10:14:40;;;;;;;5.75;1.58;;;26.60;46.00;;;;;;6311705;22;20029;-74
2021/08/21 10:17:09;;;;;;;4.53;1.73;;;26.80;45.10;;;;;;6310966;22;20082;-74
2021/08/21 10:19:38;;;;;;;7.72;1.60;;;27.30;44.20;;;;;;6281407;22;20568;-74
2021/08/21 10:22:08;;;;;;;3.72;1.25;;;28.10;44.10;;;;;;6308912;22;20074;-74
2021/08/21 10:24:38;;;;;;;2.72;1.27;;;29.10;39.80;;;;;;6308935;22;20023;-74
2021/08/21 10:27:09;;;;;;;3.40;1.35;;;29.60;38.80;;;;;;6309158;22;20330;-75
2021/08/21 10:29:37;;;;;;;3.55;1.40;;;30.90;38.50;;;;;;6282949;22;20042;-73
2021/08/21 10:32:05;;;;;;;3.58;1.40;;;31.60;35.50;;;;;;6310471;22;20218;-74
2021/08/21 10:34:53;;;;;;;2.22;1.15;;;32.00;35.70;;;;;;6283018;22;22589;-74
2021/08/21 10:37:36;;;;;;;3.30;1.17;;;32.30;35.80;;;;;;6283463;22;20053;-74
2021/08/21 10:40:41;;;;;;;4.03;1.48;;;33.40;33.30;;;;;;6285099;22;20023;-75
2021/08/21 10:43:10;;;;;;;2.53;1.30;;;33.80;32.40;;;;;;6312994;22;20026;-73
2021/08/21 10:45:51;;;;;;;4.75;1.38;;;34.00;33.00;;;;;;6311926;22;20030;-74
2021/08/21 10:48:53;;;;;;;3.47;1.33;;;34.40;29.80;;;;;;6308578;22;20015;-73
2021/08/21 10:51:38;;;;;;;2.90;1.30;;;32.90;32.10;;;;;;6311949;22;20317;-74
2021/08/21 10:54:42;;;;;;;2.80;1.08;;;33.70;31.50;;;;;;6314985;22;20023;-74
2021/08/21 10:57:31;;;;;;;3.47;1.08;;;34.70;30.10;;;;;;6310674;22;20038;-76
2021/08/21 11:00:00;;;;;;;2.88;0.80;;;35.80;29.00;;;;;;6311863;22;20027;-76
2021/08/21 11:02:41;;;;;;;2.15;1.17;;;35.00;29.20;;;;;;6285277;22;20027;-74
2021/08/21 11:05:28;;;;;;;2.35;1.08;;;35.20;29.50;;;;;;6315106;22;20019;-75
2021/08/21 11:08:04;;;;;;;2.78;1.25;;;35.40;27.90;;;;;;6281967;22;20027;-74
2021/08/21 11:10:31;;;;;;;2.05;1.10;;;34.20;29.10;;;;;;6307007;22;20079;-74
2021/08/21 11:12:59;;;;;;;7.57;1.50;;;34.00;30.00;;;;;;6280797;22;20083;-74
2021/08/21 11:15:32;;;;;;;4.72;1.33;;;34.20;30.10;;;;;;6311208;22;20027;-74
2021/08/21 11:17:59;;;;;;;3.28;1.20;;;35.30;29.80;;;;;;6310613;22;20022;-75
2021/08/21 11:20:28;;;;;;;3.88;1.60;;;35.50;28.10;;;;;;6310288;22;20043;-74
2021/08/21 11:23:19;;;;;;;2.60;1.40;;;35.20;28.70;;;;;;6283747;22;20026;-76
2021/08/21 11:25:46;;;;;;;2.95;1.40;;;35.60;28.10;;;;;;6289059;22;20238;-74
2021/08/21 11:28:21;;;;;;;2.10;1.10;;;35.60;28.30;;;;;;6263060;22;20085;-74
2021/08/21 11:31:11;;;;;;;2.17;1.25;;;37.10;27.60;;;;;;6279365;22;20019;-73
2021/08/21 11:33:41;;;;;;;6.90;1.17;;;38.40;25.40;;;;;;6309589;22;20035;-74
2021/08/21 11:36:10;;;;;;;3.50;1.08;;;38.30;25.60;;;;;;6309507;22;20031;-74
2021/08/21 11:38:41;;;;;;;2.42;1.13;;;38.30;26.00;;;;;;6266456;22;20027;-73
2021/08/21 11:41:13;;;;;;;2.38;1.20;;;38.80;25.30;;;;;;6307817;22;20077;-74
2021/08/21 11:43:41;;;;;;;1.52;0.98;;;39.10;24.40;;;;;;6309186;22;20085;-74
2021/08/21 11:46:10;;;;;;;2.47;1.27;;;38.00;24.80;;;;;;6307952;22;20027;-74
2021/08/21 11:48:39;;;;;;;2.10;1.15;;;36.10;27.60;;;;;;6309316;22;20031;-75
2021/08/21 11:51:07;;;;;;;3.13;1.52;;;35.30;28.30;;;;;;6284264;22;20042;-73
2021/08/21 11:53:40;;;;;;;2.20;1.30;;;38.00;25.70;;;;;;6311156;22;20043;-75
2021/08/21 11:56:08;;;;;;;2.28;1.40;;;38.60;25.60;;;;;;6311340;22;20081;-75
2021/08/21 11:58:37;;;;;;;4.43;1.55;;;39.80;23.80;;;;;;6308582;22;20057;-75
2021/08/21 12:01:11;;;;;;;2.80;1.20;;;39.40;23.90;;;;;;6306754;22;20058;-75
2021/08/21 12:06:22;;;;;;;6.45;1.50;;;40.10;23.60;;;;;;6307312;22;20011;-75
2021/08/21 12:08:51;;;;;;;5.50;1.85;;;41.00;23.20;;;;;;6310456;22;20229;-74
2021/08/21 12:11:21;;;;;;;2.63;1.50;;;41.00;23.30;;;;;;6286054;22;20117;-74
2021/08/21 12:13:48;;;;;;;3.25;1.30;;;39.60;24.00;;;;;;6311373;22;20310;-75
2021/08/21 12:16:17;;;;;;;2.80;1.30;;;40.50;23.70;;;;;;6284553;22;20026;-76
2021/08/21 12:18:50;;;;;;;2.08;1.25;;;39.90;23.70;;;;;;6286490;22;20023;-75
2021/08/21 12:21:19;;;;;;;2.22;1.27;;;40.60;23.40;;;;;;6311403;22;20296;-76
2021/08/21 12:23:48;;;;;;;3.88;1.63;;;40.70;22.60;;;;;;6314427;22;20318;-74
2021/08/21 12:26:32;;;;;;;1.95;1.40;;;41.70;22.60;;;;;;6286633;22;20226;-75
2021/08/21 12:28:59;;;;;;;1.67;1.27;;;42.60;21.30;;;;;;6312256;22;20029;-74
2021/08/21 12:31:34;;;;;;;1.97;1.20;;;41.50;21.90;;;;;;6285188;22;20019;-75
2021/08/21 12:34:02;;;;;;;3.75;1.40;;;39.60;23.50;;;;;;6288240;22;20023;-73
2021/08/21 12:36:29;;;;;;;2.45;1.40;;;41.00;23.00;;;;;;6315586;22;20026;-74
2021/08/21 12:39:00;;;;;;;3.03;1.50;;;39.30;24.10;;;;;;6315833;22;20030;-76
2021/08/21 12:41:33;;;;;;;2.42;1.33;;;37.70;25.20;;;;;;6313560;22;20031;-76
2021/08/21 12:44:06;;;;;;;2.15;1.40;;;38.00;25.40;;;;;;6287849;22;20023;-74
2021/08/21 12:46:35;;;;;;;2.53;1.42;;;39.50;24.30;;;;;;6314898;22;20027;-75
2021/08/21 12:49:07;;;;;;;3.47;1.50;;;38.80;23.80;;;;;;6287108;22;20067;-76
2021/08/21 12:51:35;;;;;;;2.35;1.30;;;39.60;23.70;;;;;;6314023;22;20015;-74
2021/08/21 12:54:07;;;;;;;4.35;1.42;;;38.50;24.90;;;;;;6286825;22;20297;-73
2021/08/21 12:56:36;;;;;;;5.88;1.38;;;37.10;26.00;;;;;;6313756;22;20023;-74
2021/08/21 12:59:08;;;;;;;3.47;1.38;;;35.60;28.70;;;;;;6314030;22;20341;-75
2021/08/21 13:01:35;;;;;;;4.65;1.50;;;35.60;28.40;;;;;;6308081;22;20038;-75
2021/08/21 13:04:10;;;;;;;2.15;1.35;;;35.70;28.60;;;;;;6311821;22;20023;-73
2021/08/21 13:06:38;;;;;;;4.35;1.60;;;36.60;28.00;;;;;;6310356;22;20106;-75